createdAt,value
2022-08-07T00:03:03.123Z,62.04
2022-08-07T00:06:29.512Z,61.86
2022-08-07T00:10:19.201Z,62.23
2022-08-07T00:13:40.515Z,62.35
2022-08-07T00:17:06.832Z,62.21
2022-08-07T00:20:29.879Z,62.38
2022-08-07T00:23:57.629Z,62.55
2022-08-07T00:27:19.745Z,62.72
2022-08-07T00:30:44.544Z,62.93
2022-08-07T00:34:08.910Z,63.21
2022-08-07T00:37:47.847Z,63.20
2022-08-07T00:41:14.881Z,63.56
2022-08-07T00:44:38.320Z,63.40
2022-08-07T00:48:09.587Z,63.87
2022-08-07T00:51:56.895Z,63.99
2022-08-07T00:55:17.506Z,63.97
2022-08-07T00:58:49.570Z,64.43
2022-08-07T01:02:27.887Z,64.42
2022-08-07T01:05:51.585Z,64.07
2022-08-07T01:10:04.013Z,64.33
2022-08-07T01:12:57.858Z,64.41
2022-08-07T01:16:29.970Z,64.99
2022-08-07T01:19:54.942Z,65.21
2022-08-07T01:23:18.719Z,64.94
2022-08-07T01:27:00.200Z,65.02
2022-08-07T01:30:27.190Z,65.22
2022-08-07T01:33:55.975Z,65.89
2022-08-07T01:37:22.705Z,65.44
2022-08-07T01:40:50.521Z,65.72
2022-08-07T01:44:15.409Z,66.21
2022-08-07T01:48:19.203Z,66.40
2022-08-07T01:52:02.074Z,66.49
2022-08-07T01:55:09.431Z,67.18
2022-08-07T01:58:51.933Z,66.75
2022-08-07T02:02:32.949Z,67.19
2022-08-07T02:06:09.009Z,66.57
2022-08-07T02:09:58.506Z,66.98
2022-08-07T02:13:23.614Z,66.95
2022-08-07T02:17:08.055Z,67.25
2022-08-07T02:20:33.130Z,67.39
2022-08-07T02:23:55.532Z,67.29
2022-08-07T02:27:21.762Z,67.35
2022-08-07T02:30:46.167Z,67.21
2022-08-07T02:34:18.004Z,67.17
2022-08-07T02:37:47.842Z,67.24
2022-08-07T02:41:13.846Z,67.69
2022-08-07T02:44:48.150Z,67.83
2022-08-07T02:48:15.531Z,68.10
2022-08-07T02:51:51.840Z,67.91
2022-08-07T02:55:28.608Z,68.22
2022-08-07T02:59:05.729Z,68.21
2022-08-07T03:02:28.554Z,68.57
2022-08-07T03:05:52.130Z,68.12
2022-08-07T03:09:43.628Z,68.67
2022-08-07T03:13:01.558Z,68.55
2022-08-07T03:16:27.810Z,68.30
2022-08-07T03:19:54.747Z,68.49
2022-08-07T03:23:20.025Z,69.28
2022-08-07T03:27:02.002Z,69.64
2022-08-07T03:30:34.982Z,69.00
2022-08-07T03:34:01.862Z,69.30
2022-08-07T03:37:29.067Z,69.21
2022-08-07T03:40:57.793Z,69.09
2022-08-07T03:44:34.570Z,69.31
2022-08-07T03:47:58.252Z,68.73
2022-08-07T03:51:22.464Z,69.26
2022-08-07T03:54:54.339Z,69.15
2022-08-07T03:59:05.587Z,69.00
2022-08-07T04:02:03.494Z,69.51
2022-08-07T04:05:39.734Z,69.03
2022-08-07T04:09:06.520Z,69.41
2022-08-07T04:12:38.975Z,69.27
2022-08-07T04:16:01.270Z,69.19
2022-08-07T04:19:51.578Z,68.95
2022-08-07T04:23:09.554Z,68.88
2022-08-07T04:26:43.621Z,70.13
2022-08-07T04:30:11.843Z,70.04
2022-08-07T04:33:54.987Z,69.51
2022-08-07T04:37:21.502Z,69.53
2022-08-07T04:40:52.231Z,68.63
2022-08-07T04:44:28.140Z,68.89
2022-08-07T04:48:10.142Z,68.71
2022-08-07T04:51:41.422Z,69.34
2022-08-07T04:58:12.160Z,68.85
2022-08-07T05:00:07.984Z,69.08
2022-08-07T05:02:54.238Z,69.22
2022-08-07T05:06:28.080Z,69.06
2022-08-07T05:09:59.147Z,69.42
2022-08-07T05:14:53.976Z,69.47
2022-08-07T05:17:50.433Z,69.68
2022-08-07T05:21:05.852Z,69.35
2022-08-07T05:24:40.280Z,69.32
2022-08-07T05:28:20.874Z,68.72
2022-08-07T05:31:52.771Z,68.53
2022-08-07T05:35:33.105Z,68.17
2022-08-07T05:40:05.547Z,68.16
2022-08-07T05:42:40.653Z,67.93
2022-08-07T05:46:06.547Z,67.30
2022-08-07T05:49:40.504Z,67.29
2022-08-07T05:53:04.495Z,66.86
2022-08-07T05:56:29.972Z,66.83
2022-08-07T05:59:58.175Z,66.68
2022-08-07T06:03:25.007Z,66.59
2022-08-07T06:07:08.737Z,66.10
2022-08-07T06:10:46.046Z,66.30
2022-08-07T06:14:21.012Z,65.80
2022-08-07T06:17:53.398Z,65.17
2022-08-07T06:22:16.402Z,64.93
2022-08-07T06:25:02.972Z,64.44
2022-08-07T06:28:28.166Z,64.80
2022-08-07T06:31:51.212Z,64.75
2022-08-07T06:35:17.951Z,65.27
2022-08-07T06:38:58.470Z,65.65
2022-08-07T06:42:35.035Z,65.42
2022-08-07T06:46:06.854Z,64.84
2022-08-07T06:49:34.242Z,64.42
2022-08-07T06:53:49.272Z,63.83
2022-08-07T06:57:03.630Z,63.38
2022-08-07T07:00:35.375Z,62.93
2022-08-07T07:04:08.245Z,62.44
2022-08-07T07:07:59.982Z,61.02
2022-08-07T07:12:09.564Z,59.61
2022-08-07T07:15:23.550Z,59.58
2022-08-07T07:18:54.786Z,59.30
2022-08-07T07:22:36.364Z,59.17
2022-08-07T07:26:35.523Z,58.62
2022-08-07T07:30:08.984Z,58.01
2022-08-07T07:33:35.091Z,57.45
2022-08-07T07:37:05.462Z,57.12
2022-08-07T07:40:43.241Z,56.24
2022-08-07T07:44:17.340Z,55.26
2022-08-07T07:47:52.779Z,54.37
2022-08-07T07:51:18.664Z,54.71
2022-08-07T07:54:51.012Z,53.93
2022-08-07T07:58:15.398Z,53.64
2022-08-07T08:02:02.469Z,53.24
2022-08-07T08:05:32.203Z,52.76
2022-08-07T08:09:08.109Z,52.40
2022-08-07T08:12:52.364Z,51.40
2022-08-07T08:16:18.062Z,51.60
2022-08-07T08:20:17.493Z,49.61
2022-08-07T08:23:41.951Z,48.04
2022-08-07T08:27:10.038Z,48.27
2022-08-07T08:30:42.491Z,46.71
2022-08-07T08:34:06.932Z,46.67
2022-08-07T08:38:00.257Z,46.98
2022-08-07T08:41:26.206Z,47.16
2022-08-07T08:45:15.410Z,46.55
2022-08-07T08:48:45.746Z,47.38
2022-08-07T08:52:19.511Z,46.16
2022-08-07T08:55:54.704Z,45.72
2022-08-07T08:59:28.811Z,46.20
2022-08-07T09:02:57.675Z,45.93
2022-08-07T09:06:28.659Z,45.51
2022-08-07T09:09:59.784Z,43.58
2022-08-07T09:13:37.514Z,42.47
2022-08-07T09:17:16.111Z,42.75
2022-08-07T09:20:58.599Z,43.09
2022-08-07T09:24:54.880Z,43.01
2022-08-07T09:30:05.418Z,42.82
2022-08-07T09:32:23.811Z,42.56
2022-08-07T09:36:01.375Z,42.75
2022-08-07T09:39:56.027Z,42.60
2022-08-07T09:43:40.241Z,42.89
2022-08-07T09:47:55.118Z,42.88
2022-08-07T09:52:17.071Z,42.47
2022-08-07T09:55:29.591Z,40.45
2022-08-07T09:59:46.141Z,39.40
2022-08-07T10:04:06.677Z,38.71
2022-08-07T10:07:52.813Z,38.90
2022-08-07T10:12:01.578Z,39.22
2022-08-07T10:22:14.137Z,38.98
2022-08-07T10:25:10.478Z,39.00
2022-08-07T10:28:49.722Z,39.06
2022-08-07T10:36:50.892Z,37.74
2022-08-07T10:40:37.926Z,38.51
2022-08-07T10:44:13.460Z,37.88
2022-08-07T10:48:34.688Z,37.85
2022-08-07T10:52:19.247Z,37.51
2022-08-07T10:56:53.704Z,37.15
2022-08-07T11:00:39.404Z,37.82
2022-08-07T11:04:32.206Z,37.51
2022-08-07T11:08:34.088Z,36.78
2022-08-07T11:12:32.045Z,36.69
2022-08-07T11:21:31.968Z,36.82
2022-08-07T11:25:06.598Z,36.65
2022-08-07T11:28:42.416Z,36.42
2022-08-07T11:32:11.263Z,36.25
2022-08-07T11:35:59.448Z,36.66
2022-08-07T11:40:00.329Z,36.42
2022-08-07T11:43:54.465Z,35.78
2022-08-07T11:48:13.824Z,34.20
2022-08-07T11:52:10.387Z,35.50
2022-08-07T11:56:25.958Z,33.82
2022-08-07T12:00:19.327Z,34.99
2022-08-07T12:04:24.915Z,33.83
2022-08-07T12:08:04.125Z,34.39
2022-08-07T12:12:09.373Z,34.23
2022-08-07T12:16:06.134Z,33.92
2022-08-07T12:20:02.621Z,33.95
2022-08-07T12:24:07.102Z,34.28
2022-08-07T12:28:08.836Z,34.25
2022-08-07T12:31:52.930Z,33.84
2022-08-07T12:35:29.247Z,33.79
2022-08-07T12:39:43.239Z,32.65
2022-08-07T12:43:09.691Z,33.25
2022-08-07T12:46:47.623Z,34.86
2022-08-07T12:50:38.568Z,33.79
2022-08-07T12:54:36.837Z,34.68
2022-08-07T12:58:01.464Z,35.10
2022-08-07T13:01:41.385Z,33.74
2022-08-07T13:06:03.893Z,33.88
2022-08-07T13:10:22.028Z,32.90
2022-08-07T13:13:46.941Z,33.64
2022-08-07T13:17:21.287Z,33.49
2022-08-07T13:20:51.169Z,33.02
2022-08-07T13:24:25.621Z,32.73
2022-08-07T13:28:10.828Z,32.19
2022-08-07T13:31:46.204Z,32.21
2022-08-07T13:35:59.560Z,32.58
2022-08-07T13:40:32.599Z,32.01
2022-08-07T13:43:15.074Z,32.02
2022-08-07T13:46:41.882Z,30.65
2022-08-07T13:50:33.011Z,31.19
2022-08-07T13:54:01.997Z,31.46
2022-08-07T13:57:32.112Z,32.30
2022-08-07T14:01:09.150Z,31.22
2022-08-07T14:04:48.918Z,31.16
2022-08-07T14:08:18.634Z,31.70
2022-08-07T14:12:00.311Z,32.84
2022-08-07T14:15:31.977Z,31.93
2022-08-07T14:19:00.806Z,31.78
2022-08-07T14:22:39.785Z,31.59
2022-08-07T14:26:30.394Z,31.80
2022-08-07T14:30:11.704Z,31.27
2022-08-07T14:33:44.878Z,32.17
2022-08-07T14:37:16.171Z,32.00
2022-08-07T14:40:40.612Z,31.93
2022-08-07T14:44:19.166Z,31.30
2022-08-07T14:47:58.752Z,31.25
2022-08-07T14:51:28.068Z,30.72
2022-08-07T14:55:17.505Z,31.74
2022-08-07T14:58:44.127Z,31.30
2022-08-07T15:02:33.211Z,31.17
2022-08-07T15:06:04.095Z,30.05
2022-08-07T15:09:59.119Z,30.26
2022-08-07T15:13:38.363Z,29.50
2022-08-07T15:22:04.557Z,28.55
2022-08-07T15:25:40.014Z,28.70
2022-08-07T15:30:10.049Z,29.10
2022-08-07T15:33:42.738Z,28.98
2022-08-07T15:38:04.456Z,28.43
2022-08-07T15:42:45.731Z,27.65
2022-08-07T15:45:56.466Z,27.89
2022-08-07T15:50:05.398Z,28.25
2022-08-07T15:53:52.296Z,27.30
2022-08-07T15:57:40.119Z,27.77
2022-08-07T16:02:15.585Z,28.39
2022-08-07T16:05:51.902Z,28.43
2022-08-07T16:14:38.237Z,28.23
2022-08-07T16:18:13.475Z,29.05
2022-08-07T16:22:36.172Z,29.43
2022-08-07T16:26:15.243Z,29.00
2022-08-07T16:34:25.319Z,29.32
2022-08-07T16:44:06.218Z,30.01
2022-08-07T16:47:56.467Z,29.97
2022-08-07T16:51:54.516Z,30.27
2022-08-07T16:55:43.710Z,29.87
2022-08-07T16:59:26.034Z,29.78
2022-08-07T17:03:57.651Z,29.72
2022-08-07T17:07:55.071Z,30.11
2022-08-07T17:26:58.064Z,29.62
2022-08-07T17:30:26.812Z,29.90
2022-08-07T17:34:15.355Z,30.31
2022-08-07T17:38:09.625Z,30.54
2022-08-07T17:42:03.992Z,30.79
2022-08-07T17:45:42.278Z,30.84
2022-08-07T17:49:14.666Z,30.90
2022-08-07T17:52:50.525Z,30.26
2022-08-07T17:56:25.931Z,30.88
2022-08-07T18:00:48.843Z,30.52
2022-08-07T18:04:31.229Z,30.64
2022-08-07T18:08:12.738Z,30.70
2022-08-07T18:12:27.896Z,30.64
2022-08-07T18:16:07.413Z,30.84
2022-08-07T18:21:02.432Z,31.05
2022-08-07T18:24:51.481Z,31.05
2022-08-07T18:30:06.592Z,31.73
2022-08-07T18:33:27.128Z,32.02
2022-08-07T18:38:56.627Z,33.18
2022-08-07T18:42:48.650Z,33.03
2022-08-07T18:47:22.513Z,34.18
2022-08-07T18:52:34.249Z,35.06
2022-08-07T18:55:40.835Z,35.89
2022-08-07T18:59:47.846Z,36.99
2022-08-07T19:03:41.538Z,37.42
2022-08-07T19:07:51.882Z,38.02
2022-08-07T19:11:36.210Z,38.67
2022-08-07T19:16:03.720Z,39.53
2022-08-07T19:25:07.581Z,41.04
2022-08-07T19:30:53.696Z,41.25
2022-08-07T19:36:28.887Z,41.35
2022-08-07T19:40:34.589Z,42.43
2022-08-07T19:44:21.685Z,42.91
2022-08-07T19:47:56.081Z,43.37
2022-08-07T19:55:58.083Z,43.85
2022-08-07T19:59:27.280Z,44.43
2022-08-07T20:03:33.481Z,44.57
2022-08-07T20:07:10.136Z,45.15
2022-08-07T20:10:55.196Z,45.82
2022-08-07T20:14:31.336Z,46.23
2022-08-07T20:18:01.702Z,46.42
2022-08-07T20:21:29.166Z,47.43
2022-08-07T20:25:12.875Z,47.40
2022-08-07T20:28:51.802Z,47.67
2022-08-07T20:32:22.942Z,47.92
2022-08-07T20:36:03.701Z,48.29
2022-08-07T20:40:02.501Z,48.70
2022-08-07T20:43:28.030Z,49.25
2022-08-07T20:47:04.283Z,48.96
2022-08-07T20:50:34.782Z,49.31
2022-08-07T20:54:11.967Z,49.55
2022-08-07T20:58:02.649Z,49.62
2022-08-07T21:01:45.919Z,50.09
2022-08-07T21:05:42.575Z,50.51
2022-08-07T21:09:24.634Z,50.62
2022-08-07T21:12:59.130Z,50.78
2022-08-07T21:16:27.332Z,51.09
2022-08-07T21:20:04.724Z,51.37
2022-08-07T21:23:49.555Z,51.89
2022-08-07T21:27:20.214Z,52.01
2022-08-07T21:30:56.729Z,52.34
2022-08-07T21:34:32.229Z,52.58
2022-08-07T21:38:19.440Z,53.10
2022-08-07T21:42:02.704Z,53.68
2022-08-07T21:46:04.906Z,53.98
2022-08-07T21:49:40.686Z,54.11
2022-08-07T21:53:18.250Z,54.42
2022-08-07T21:56:53.751Z,54.68
2022-08-07T22:00:24.895Z,54.88
2022-08-07T22:04:00.242Z,54.72
2022-08-07T22:07:42.886Z,55.29
2022-08-07T22:11:11.093Z,55.29
2022-08-07T22:14:59.262Z,55.87
2022-08-07T22:18:29.662Z,55.73
2022-08-07T22:22:17.817Z,55.98
2022-08-07T22:26:02.618Z,56.48
2022-08-07T22:29:47.650Z,56.75
2022-08-07T22:33:15.072Z,57.13
2022-08-07T22:36:46.597Z,57.31
2022-08-07T22:40:17.240Z,57.35
2022-08-07T22:43:44.780Z,57.53
2022-08-07T22:47:35.351Z,57.64
2022-08-07T22:51:23.259Z,57.95
2022-08-07T22:55:22.864Z,58.07
2022-08-07T22:59:16.248Z,58.13
2022-08-07T23:03:04.191Z,58.43
2022-08-07T23:06:56.155Z,58.88
2022-08-07T23:10:38.607Z,58.87
2022-08-07T23:14:20.815Z,58.90
2022-08-07T23:18:03.405Z,59.47
2022-08-07T23:21:30.122Z,59.44
2022-08-07T23:25:05.012Z,59.86
2022-08-07T23:28:54.389Z,59.84
2022-08-07T23:34:21.156Z,60.16
2022-08-07T23:36:22.697Z,59.93
2022-08-07T23:40:04.202Z,60.56
2022-08-07T23:44:06.826Z,60.68
2022-08-07T23:47:55.404Z,61.11
2022-08-07T23:52:59.824Z,60.93
2022-08-07T23:55:52.987Z,60.94
2022-08-07T23:59:10.515Z,61.51
